sensor_id;sensor_type;location;lat;lon;timestamp;pressure;altitude;pressure_sealevel;temperature;humidity
51201;BME280;55101;52.138;5.216;2022-07-05T00:00:43;102256.0;;;13.49;85.38
51201;BME280;55101;52.138;5.216;2022-07-05T00:02:30;102260.0;;;13.5;85.39
51201;BME280;55101;52.138;5.216;2022-07-05T00:04:17;102259.0;;;13.47;85.2
51201;BME280;55101;52.138;5.216;2022-07-05T00:06:05;102260.0;;;13.39;85.91
51201;BME280;55101;52.138;5.216;2022-07-05T00:07:51;102264.0;;;13.31;85.83
51201;BME280;55101;52.138;5.216;2022-07-05T00:09:39;102263.0;;;13.35;85.51
51201;BME280;55101;52.138;5.216;2022-07-05T00:13:13;102258.0;;;13.25;85.61
51201;BME280;55101;52.138;5.216;2022-07-05T00:15:00;102260.0;;;13.3;85.45
51201;BME280;55101;52.138;5.216;2022-07-05T00:16:47;102259.0;;;13.18;86.39
51201;BME280;55101;52.138;5.216;2022-07-05T00:18:35;102259.0;;;13.25;86.04
51201;BME280;55101;52.138;5.216;2022-07-05T00:20:21;102257.0;;;13.36;85.37
51201;BME280;55101;52.138;5.216;2022-07-05T00:22:08;102260.0;;;13.36;85.36
51201;BME280;55101;52.138;5.216;2022-07-05T00:25:41;102257.0;;;13.45;84.45
51201;BME280;55101;52.138;5.216;2022-07-05T00:27:27;102258.0;;;13.38;84.56
51201;BME280;55101;52.138;5.216;2022-07-05T00:29:14;102259.0;;;13.25;85.3
51201;BME280;55101;52.138;5.216;2022-07-05T00:31:01;102260.0;;;13.24;85.53
51201;BME280;55101;52.138;5.216;2022-07-05T00:32:47;102257.0;;;13.33;84.71
51201;BME280;55101;52.138;5.216;2022-07-05T00:36:20;102253.0;;;13.22;84.65
51201;BME280;55101;52.138;5.216;2022-07-05T00:38:07;102251.0;;;13.17;85.46
51201;BME280;55101;52.138;5.216;2022-07-05T00:39:54;102245.0;;;13.25;84.77
51201;BME280;55101;52.138;5.216;2022-07-05T00:41:40;102245.0;;;13.11;85.62
51201;BME280;55101;52.138;5.216;2022-07-05T00:43:27;102247.0;;;13.14;85.59
51201;BME280;55101;52.138;5.216;2022-07-05T00:45:14;102245.0;;;13.08;85.91
51201;BME280;55101;52.138;5.216;2022-07-05T00:48:51;102250.0;;;12.96;86.75
51201;BME280;55101;52.138;5.216;2022-07-05T00:50:39;102249.0;;;12.99;86.52
51201;BME280;55101;52.138;5.216;2022-07-05T00:52:29;102250.0;;;13.01;86.49
51201;BME280;55101;52.138;5.216;2022-07-05T00:54:16;102247.0;;;13.28;85.48
51201;BME280;55101;52.138;5.216;2022-07-05T00:56:04;102247.0;;;13.35;84.75
51201;BME280;55101;52.138;5.216;2022-07-05T00:57:51;102249.0;;;13.21;85.35
51201;BME280;55101;52.138;5.216;2022-07-05T01:01:26;102251.0;;;13.06;86.3
51201;BME280;55101;52.138;5.216;2022-07-05T01:03:13;102252.0;;;13.1;86.5
51201;BME280;55101;52.138;5.216;2022-07-05T01:05:00;102246.0;;;13.12;86.51
51201;BME280;55101;52.138;5.216;2022-07-05T01:06:48;102250.0;;;13.05;87.66
51201;BME280;55101;52.138;5.216;2022-07-05T01:08:37;102250.0;;;12.99;87.02
51201;BME280;55101;52.138;5.216;2022-07-05T01:10:26;102253.0;;;13.06;86.82
51201;BME280;55101;52.138;5.216;2022-07-05T01:14:02;102249.0;;;13.16;86.67
51201;BME280;55101;52.138;5.216;2022-07-05T01:15:48;102248.0;;;13.26;86.07
51201;BME280;55101;52.138;5.216;2022-07-05T01:17:37;102251.0;;;13.29;85.61
51201;BME280;55101;52.138;5.216;2022-07-05T01:19:24;102249.0;;;13.31;85.83
51201;BME280;55101;52.138;5.216;2022-07-05T01:21:12;102247.0;;;13.36;85.35
51201;BME280;55101;52.138;5.216;2022-07-05T01:23:01;102246.0;;;13.25;86.16
51201;BME280;55101;52.138;5.216;2022-07-05T01:26:36;102242.0;;;13.41;85.71
51201;BME280;55101;52.138;5.216;2022-07-05T01:28:24;102244.0;;;13.28;85.62
51201;BME280;55101;52.138;5.216;2022-07-05T01:30:11;102240.0;;;13.33;85.52
51201;BME280;55101;52.138;5.216;2022-07-05T01:31:58;102237.0;;;13.38;85.06
51201;BME280;55101;52.138;5.216;2022-07-05T01:33:44;102235.0;;;13.31;85.72
51201;BME280;55101;52.138;5.216;2022-07-05T01:35:30;102240.0;;;13.14;87.04
51201;BME280;55101;52.138;5.216;2022-07-05T01:39:05;102240.0;;;13.12;86.72
51201;BME280;55101;52.138;5.216;2022-07-05T01:40:53;102244.0;;;13.17;86.31
51201;BME280;55101;52.138;5.216;2022-07-05T01:42:40;102252.0;;;13.22;85.77
51201;BME280;55101;52.138;5.216;2022-07-05T01:44:26;102250.0;;;13.07;87.22
51201;BME280;55101;52.138;5.216;2022-07-05T01:46:15;102255.0;;;13.09;86.02
51201;BME280;55101;52.138;5.216;2022-07-05T01:48:05;102258.0;;;13.31;85.71
51201;BME280;55101;52.138;5.216;2022-07-05T01:51:48;102252.0;;;13.22;85.41
51201;BME280;55101;52.138;5.216;2022-07-05T01:53:39;102253.0;;;13.19;85.77
51201;BME280;55101;52.138;5.216;2022-07-05T01:55:26;102257.0;;;13.36;85.37
51201;BME280;55101;52.138;5.216;2022-07-05T01:57:13;102256.0;;;13.3;85.34
51201;BME280;55101;52.138;5.216;2022-07-05T01:59:00;102258.0;;;13.19;86.07
51201;BME280;55101;52.138;5.216;2022-07-05T02:00:48;102251.0;;;13.25;86.11
51201;BME280;55101;52.138;5.216;2022-07-05T02:02:39;102250.0;;;13.23;86.43
51201;BME280;55101;52.138;5.216;2022-07-05T02:06:14;102250.0;;;13.23;86.62
51201;BME280;55101;52.138;5.216;2022-07-05T02:08:01;102251.0;;;13.3;86.58
51201;BME280;55101;52.138;5.216;2022-07-05T02:09:47;102246.0;;;13.38;85.71
51201;BME280;55101;52.138;5.216;2022-07-05T02:11:33;102248.0;;;13.22;87.11
51201;BME280;55101;52.138;5.216;2022-07-05T02:13:21;102250.0;;;13.22;88.17
51201;BME280;55101;52.138;5.216;2022-07-05T02:15:08;102251.0;;;13.37;87.15
51201;BME280;55101;52.138;5.216;2022-07-05T02:18:41;102250.0;;;13.23;88.03
51201;BME280;55101;52.138;5.216;2022-07-05T02:20:28;102253.0;;;13.27;87.2
51201;BME280;55101;52.138;5.216;2022-07-05T02:22:14;102252.0;;;13.42;87.15
51201;BME280;55101;52.138;5.216;2022-07-05T02:24:00;102245.0;;;13.51;86.21
51201;BME280;55101;52.138;5.216;2022-07-05T02:25:46;102247.0;;;13.44;86.62
51201;BME280;55101;52.138;5.216;2022-07-05T02:29:19;102248.0;;;13.33;86.68
51201;BME280;55101;52.138;5.216;2022-07-05T02:31:05;102246.0;;;13.24;86.61
51201;BME280;55101;52.138;5.216;2022-07-05T02:32:51;102244.0;;;13.19;86.66
51201;BME280;55101;52.138;5.216;2022-07-05T02:34:38;102245.0;;;13.35;86.32
51201;BME280;55101;52.138;5.216;2022-07-05T02:36:25;102243.0;;;13.68;84.85
51201;BME280;55101;52.138;5.216;2022-07-05T02:38:12;102246.0;;;13.69;84.27
51201;BME280;55101;52.138;5.216;2022-07-05T02:41:44;102245.0;;;13.5;84.56
51201;BME280;55101;52.138;5.216;2022-07-05T02:43:31;102240.0;;;13.35;85.33
51201;BME280;55101;52.138;5.216;2022-07-05T02:45:17;102243.0;;;13.27;85.23
51201;BME280;55101;52.138;5.216;2022-07-05T02:47:05;102241.0;;;13.23;85.92
51201;BME280;55101;52.138;5.216;2022-07-05T02:48:51;102244.0;;;13.18;85.6
51201;BME280;55101;52.138;5.216;2022-07-05T02:52:24;102247.0;;;13.13;85.6
51201;BME280;55101;52.138;5.216;2022-07-05T02:54:11;102256.0;;;13.01;86.21
51201;BME280;55101;52.138;5.216;2022-07-05T02:55:57;102256.0;;;12.99;86.87
51201;BME280;55101;52.138;5.216;2022-07-05T02:57:45;102258.0;;;12.99;86.57
51201;BME280;55101;52.138;5.216;2022-07-05T02:59:31;102257.0;;;12.98;86.65
51201;BME280;55101;52.138;5.216;2022-07-05T03:01:18;102258.0;;;12.9;86.96
51201;BME280;55101;52.138;5.216;2022-07-05T03:04:51;102261.0;;;12.9;87.14
51201;BME280;55101;52.138;5.216;2022-07-05T03:06:39;102259.0;;;12.99;87.18
51201;BME280;55101;52.138;5.216;2022-07-05T03:08:26;102263.0;;;12.91;86.42
51201;BME280;55101;52.138;5.216;2022-07-05T03:10:12;102262.0;;;12.79;87.04
51201;BME280;55101;52.138;5.216;2022-07-05T03:11:58;102266.0;;;12.73;87.25
51201;BME280;55101;52.138;5.216;2022-07-05T03:13:44;102265.0;;;12.78;87.4
51201;BME280;55101;52.138;5.216;2022-07-05T03:17:17;102261.0;;;12.78;87.23
51201;BME280;55101;52.138;5.216;2022-07-05T03:19:04;102261.0;;;12.86;86.95
51201;BME280;55101;52.138;5.216;2022-07-05T03:20:51;102260.0;;;12.72;87.97
51201;BME280;55101;52.138;5.216;2022-07-05T03:22:38;102265.0;;;12.63;88.56
51201;BME280;55101;52.138;5.216;2022-07-05T03:24:24;102269.0;;;12.77;87.06
51201;BME280;55101;52.138;5.216;2022-07-05T03:27:58;102264.0;;;12.62;87.45
51201;BME280;55101;52.138;5.216;2022-07-05T03:29:44;102270.0;;;12.65;87.24
51201;BME280;55101;52.138;5.216;2022-07-05T03:31:31;102272.0;;;12.65;88.05
51201;BME280;55101;52.138;5.216;2022-07-05T03:33:17;102270.0;;;12.84;87.36
51201;BME280;55101;52.138;5.216;2022-07-05T03:35:04;102271.0;;;12.84;86.79
51201;BME280;55101;52.138;5.216;2022-07-05T03:36:52;102271.0;;;12.87;87.56
51201;BME280;55101;52.138;5.216;2022-07-05T03:40:24;102270.0;;;12.96;87.1
51201;BME280;55101;52.138;5.216;2022-07-05T03:42:10;102274.0;;;12.93;88.05
51201;BME280;55101;52.138;5.216;2022-07-05T03:43:56;102278.0;;;12.86;88.02
51201;BME280;55101;52.138;5.216;2022-07-05T03:45:42;102278.0;;;13.0;87.6
51201;BME280;55101;52.138;5.216;2022-07-05T03:47:30;102284.0;;;13.08;87.34
51201;BME280;55101;52.138;5.216;2022-07-05T03:49:17;102282.0;;;13.09;87.4
51201;BME280;55101;52.138;5.216;2022-07-05T03:52:50;102278.0;;;13.14;87.17
51201;BME280;55101;52.138;5.216;2022-07-05T03:54:36;102283.0;;;13.17;86.95
51201;BME280;55101;52.138;5.216;2022-07-05T03:56:23;102277.0;;;13.33;86.73
51201;BME280;55101;52.138;5.216;2022-07-05T03:58:10;102280.0;;;13.42;86.26
51201;BME280;55101;52.138;5.216;2022-07-05T03:59:57;102282.0;;;13.67;85.22
51201;BME280;55101;52.138;5.216;2022-07-05T04:03:30;102282.0;;;13.64;84.96
51201;BME280;55101;52.138;5.216;2022-07-05T04:05:17;102286.0;;;13.57;85.53
51201;BME280;55101;52.138;5.216;2022-07-05T04:07:04;102283.0;;;13.58;85.87
51201;BME280;55101;52.138;5.216;2022-07-05T04:08:50;102286.0;;;13.61;85.9
51201;BME280;55101;52.138;5.216;2022-07-05T04:10:37;102286.0;;;13.5;86.85
51201;BME280;55101;52.138;5.216;2022-07-05T04:12:23;102280.0;;;13.65;86.5
51201;BME280;55101;52.138;5.216;2022-07-05T04:15:57;102282.0;;;13.78;86.35
51201;BME280;55101;52.138;5.216;2022-07-05T04:17:47;102286.0;;;13.78;86.6
51201;BME280;55101;52.138;5.216;2022-07-05T04:19:34;102283.0;;;13.75;87.2
51201;BME280;55101;52.138;5.216;2022-07-05T04:21:21;102283.0;;;13.83;86.86
51201;BME280;55101;52.138;5.216;2022-07-05T04:23:08;102275.0;;;13.9;86.18
51201;BME280;55101;52.138;5.216;2022-07-05T04:25:26;102281.0;;;13.85;86.55
51201;BME280;55101;52.138;5.216;2022-07-05T04:27:14;102283.0;;;13.99;86.46
51201;BME280;55101;52.138;5.216;2022-07-05T04:29:00;102284.0;;;14.04;86.61
51201;BME280;55101;52.138;5.216;2022-07-05T04:32:34;102280.0;;;14.27;85.56
51201;BME280;55101;52.138;5.216;2022-07-05T04:34:20;102281.0;;;14.33;85.12
51201;BME280;55101;52.138;5.216;2022-07-05T04:36:07;102286.0;;;14.44;85.12
51201;BME280;55101;52.138;5.216;2022-07-05T04:37:53;102288.0;;;14.33;85.75
51201;BME280;55101;52.138;5.216;2022-07-05T04:39:39;102285.0;;;14.27;86.76
51201;BME280;55101;52.138;5.216;2022-07-05T04:43:13;102289.0;;;14.48;86.15
51201;BME280;55101;52.138;5.216;2022-07-05T04:45:00;102285.0;;;14.67;85.24
51201;BME280;55101;52.138;5.216;2022-07-05T04:46:47;102285.0;;;14.51;85.74
51201;BME280;55101;52.138;5.216;2022-07-05T04:48:33;102288.0;;;14.64;85.46
51201;BME280;55101;52.138;5.216;2022-07-05T04:50:19;102286.0;;;14.84;84.8
51201;BME280;55101;52.138;5.216;2022-07-05T04:52:06;102288.0;;;14.74;84.75
51201;BME280;55101;52.138;5.216;2022-07-05T04:55:39;102286.0;;;14.72;85.63
51201;BME280;55101;52.138;5.216;2022-07-05T04:57:25;102289.0;;;14.76;85.68
51201;BME280;55101;52.138;5.216;2022-07-05T04:59:12;102290.0;;;14.89;85.95
51201;BME280;55101;52.138;5.216;2022-07-05T05:01:00;102289.0;;;14.95;86.1
51201;BME280;55101;52.138;5.216;2022-07-05T05:02:47;102291.0;;;14.95;86.14
51201;BME280;55101;52.138;5.216;2022-07-05T05:04:34;102287.0;;;15.18;85.12
51201;BME280;55101;52.138;5.216;2022-07-05T05:08:07;102288.0;;;15.22;84.91
51201;BME280;55101;52.138;5.216;2022-07-05T05:09:53;102287.0;;;15.12;85.86
51201;BME280;55101;52.138;5.216;2022-07-05T05:11:40;102290.0;;;15.27;85.76
51201;BME280;55101;52.138;5.216;2022-07-05T05:13:27;102292.0;;;15.52;84.32
51201;BME280;55101;52.138;5.216;2022-07-05T05:15:14;102292.0;;;15.46;84.21
51201;BME280;55101;52.138;5.216;2022-07-05T05:18:47;102297.0;;;15.51;84.41
51201;BME280;55101;52.138;5.216;2022-07-05T05:20:33;102288.0;;;15.23;85.56
51201;BME280;55101;52.138;5.216;2022-07-05T05:22:19;102286.0;;;15.81;84.25
51201;BME280;55101;52.138;5.216;2022-07-05T05:24:06;102284.0;;;15.89;84.91
51201;BME280;55101;52.138;5.216;2022-07-05T05:25:52;102299.0;;;16.18;83.8
51201;BME280;55101;52.138;5.216;2022-07-05T05:27:41;102295.0;;;16.29;82.52
51201;BME280;55101;52.138;5.216;2022-07-05T05:31:15;102297.0;;;16.22;82.79
51201;BME280;55101;52.138;5.216;2022-07-05T05:33:01;102294.0;;;16.4;82.41
51201;BME280;55101;52.138;5.216;2022-07-05T05:34:47;102294.0;;;16.36;82.1
51201;BME280;55101;52.138;5.216;2022-07-05T05:36:34;102301.0;;;16.29;82.61
51201;BME280;55101;52.138;5.216;2022-07-05T05:38:21;102300.0;;;16.37;82.71
51201;BME280;55101;52.138;5.216;2022-07-05T05:40:09;102305.0;;;16.38;83.44
51201;BME280;55101;52.138;5.216;2022-07-05T05:43:43;102303.0;;;16.52;82.45
51201;BME280;55101;52.138;5.216;2022-07-05T05:45:30;102307.0;;;16.52;83.59
51201;BME280;55101;52.138;5.216;2022-07-05T05:47:16;102305.0;;;16.77;83.29
51201;BME280;55101;52.138;5.216;2022-07-05T05:49:03;102309.0;;;17.06;82.41
51201;BME280;55101;52.138;5.216;2022-07-05T05:50:49;102306.0;;;17.16;81.93
51201;BME280;55101;52.138;5.216;2022-07-05T05:54:23;102313.0;;;17.18;82.2
51201;BME280;55101;52.138;5.216;2022-07-05T05:56:10;102314.0;;;17.27;82.06
51201;BME280;55101;52.138;5.216;2022-07-05T05:58:10;102315.0;;;17.3;82.62
51201;BME280;55101;52.138;5.216;2022-07-05T05:59:56;102317.0;;;17.5;81.22
51201;BME280;55101;52.138;5.216;2022-07-05T06:01:43;102306.0;;;17.71;80.41
51201;BME280;55101;52.138;5.216;2022-07-05T06:03:29;102313.0;;;17.86;79.56
51201;BME280;55101;52.138;5.216;2022-07-05T06:05:16;102316.0;;;17.8;79.67
51201;BME280;55101;52.138;5.216;2022-07-05T06:08:49;102312.0;;;17.97;79.97
51201;BME280;55101;52.138;5.216;2022-07-05T06:10:36;102310.0;;;18.13;80.41
51201;BME280;55101;52.138;5.216;2022-07-05T06:12:23;102318.0;;;18.12;80.89
51201;BME280;55101;52.138;5.216;2022-07-05T06:14:09;102315.0;;;18.27;80.09
51201;BME280;55101;52.138;5.216;2022-07-05T06:15:55;102317.0;;;18.47;79.81
51201;BME280;55101;52.138;5.216;2022-07-05T06:19:28;102326.0;;;18.62;79.3
51201;BME280;55101;52.138;5.216;2022-07-05T06:21:14;102323.0;;;18.71;79.39
51201;BME280;55101;52.138;5.216;2022-07-05T06:23:02;102328.0;;;18.93;78.87
51201;BME280;55101;52.138;5.216;2022-07-05T06:24:50;102333.0;;;19.2;76.24
51201;BME280;55101;52.138;5.216;2022-07-05T06:26:36;102326.0;;;19.28;72.03
51201;BME280;55101;52.138;5.216;2022-07-05T06:28:22;102323.0;;;19.45;71.41
51201;BME280;55101;52.138;5.216;2022-07-05T06:32:00;102330.0;;;19.64;71.05
51201;BME280;55101;52.138;5.216;2022-07-05T06:33:47;102335.0;;;19.8;69.16
51201;BME280;55101;52.138;5.216;2022-07-05T06:35:34;102337.0;;;19.79;70.72
51201;BME280;55101;52.138;5.216;2022-07-05T06:37:20;102337.0;;;19.88;71.72
51201;BME280;55101;52.138;5.216;2022-07-05T06:39:06;102338.0;;;20.0;71.84
51201;BME280;55101;52.138;5.216;2022-07-05T06:40:53;102341.0;;;20.02;70.31
51201;BME280;55101;52.138;5.216;2022-07-05T06:44:27;102341.0;;;20.16;69.83
51201;BME280;55101;52.138;5.216;2022-07-05T06:46:13;102346.0;;;20.05;72.03
51201;BME280;55101;52.138;5.216;2022-07-05T06:48:01;102343.0;;;20.14;68.61
51201;BME280;55101;52.138;5.216;2022-07-05T06:49:48;102343.0;;;20.2;67.75
51201;BME280;55101;52.138;5.216;2022-07-05T06:51:34;102345.0;;;20.3;67.06
51201;BME280;55101;52.138;5.216;2022-07-05T06:53:20;102346.0;;;20.32;67.97
51201;BME280;55101;52.138;5.216;2022-07-05T06:56:55;102344.0;;;20.34;65.2
51201;BME280;55101;52.138;5.216;2022-07-05T06:58:41;102349.0;;;20.47;63.57
51201;BME280;55101;52.138;5.216;2022-07-05T07:00:27;102343.0;;;20.58;62.55
51201;BME280;55101;52.138;5.216;2022-07-05T07:02:14;102349.0;;;20.61;62.08
51201;BME280;55101;52.138;5.216;2022-07-05T07:04:02;102352.0;;;20.57;62.56
51201;BME280;55101;52.138;5.216;2022-07-05T07:10:36;102353.0;;;20.51;63.15
51201;BME280;55101;52.138;5.216;2022-07-05T07:12:24;102352.0;;;20.38;65.11
51201;BME280;55101;52.138;5.216;2022-07-05T07:15:58;102348.0;;;20.48;66.41
51201;BME280;55101;52.138;5.216;2022-07-05T07:17:44;102348.0;;;20.36;68.58
51201;BME280;55101;52.138;5.216;2022-07-05T07:19:30;102346.0;;;20.5;62.45
51201;BME280;55101;52.138;5.216;2022-07-05T07:21:16;102345.0;;;20.65;61.38
51201;BME280;55101;52.138;5.216;2022-07-05T07:23:02;102352.0;;;20.68;59.87
51201;BME280;55101;52.138;5.216;2022-07-05T07:24:48;102352.0;;;20.81;59.06
51201;BME280;55101;52.138;5.216;2022-07-05T07:28:51;102352.0;;;20.76;59.46
51201;BME280;55101;52.138;5.216;2022-07-05T07:30:38;102353.0;;;20.96;59.4
51201;BME280;55101;52.138;5.216;2022-07-05T07:32:25;102355.0;;;20.94;59.25
51201;BME280;55101;52.138;5.216;2022-07-05T07:34:12;102358.0;;;20.98;59.27
51201;BME280;55101;52.138;5.216;2022-07-05T07:35:59;102361.0;;;21.15;59.09
51201;BME280;55101;52.138;5.216;2022-07-05T07:37:46;102359.0;;;21.14;57.77
51201;BME280;55101;52.138;5.216;2022-07-05T07:39:33;102367.0;;;21.01;57.38
51201;BME280;55101;52.138;5.216;2022-07-05T07:43:05;102369.0;;;21.04;57.37
51201;BME280;55101;52.138;5.216;2022-07-05T07:44:51;102369.0;;;21.16;59.19
51201;BME280;55101;52.138;5.216;2022-07-05T07:46:39;102367.0;;;21.1;57.28
51201;BME280;55101;52.138;5.216;2022-07-05T07:48:29;102369.0;;;21.18;57.17
51201;BME280;55101;52.138;5.216;2022-07-05T07:50:14;102364.0;;;21.35;57.26
51201;BME280;55101;52.138;5.216;2022-07-05T07:52:01;102369.0;;;21.49;57.84
51201;BME280;55101;52.138;5.216;2022-07-05T07:55:34;102367.0;;;21.34;55.46
51201;BME280;55101;52.138;5.216;2022-07-05T07:57:20;102373.0;;;21.45;55.85
51201;BME280;55101;52.138;5.216;2022-07-05T07:59:08;102376.0;;;21.41;57.16
51201;BME280;55101;52.138;5.216;2022-07-05T08:00:55;102375.0;;;21.48;54.96
51201;BME280;55101;52.138;5.216;2022-07-05T08:02:41;102374.0;;;21.46;56.39
51201;BME280;55101;52.138;5.216;2022-07-05T08:06:13;102373.0;;;21.6;56.08
51201;BME280;55101;52.138;5.216;2022-07-05T08:08:01;102375.0;;;21.68;57.38
51201;BME280;55101;52.138;5.216;2022-07-05T08:09:49;102372.0;;;21.82;55.86
51201;BME280;55101;52.138;5.216;2022-07-05T08:11:36;102373.0;;;21.97;54.19
51201;BME280;55101;52.138;5.216;2022-07-05T08:13:23;102377.0;;;21.97;55.48
51201;BME280;55101;52.138;5.216;2022-07-05T08:15:10;102378.0;;;21.83;54.12
51201;BME280;55101;52.138;5.216;2022-07-05T08:21:48;102385.0;;;21.94;55.79
51201;BME280;55101;52.138;5.216;2022-07-05T08:23:35;102384.0;;;21.91;55.1
51201;BME280;55101;52.138;5.216;2022-07-05T08:27:08;102381.0;;;21.95;54.83
51201;BME280;55101;52.138;5.216;2022-07-05T08:28:54;102380.0;;;22.02;52.1
51201;BME280;55101;52.138;5.216;2022-07-05T08:30:42;102383.0;;;22.07;53.89
51201;BME280;55101;52.138;5.216;2022-07-05T08:32:28;102381.0;;;22.2;54.93
51201;BME280;55101;52.138;5.216;2022-07-05T08:34:14;102376.0;;;22.39;52.8
51201;BME280;55101;52.138;5.216;2022-07-05T08:36:06;102380.0;;;22.1;52.01
51201;BME280;55101;52.138;5.216;2022-07-05T08:39:38;102375.0;;;22.23;54.67
51201;BME280;55101;52.138;5.216;2022-07-05T08:41:25;102375.0;;;22.31;53.49
51201;BME280;55101;52.138;5.216;2022-07-05T08:43:13;102374.0;;;22.26;53.9
51201;BME280;55101;52.138;5.216;2022-07-05T08:45:01;102377.0;;;22.19;54.29
51201;BME280;55101;52.138;5.216;2022-07-05T08:46:50;102378.0;;;22.14;53.29
51201;BME280;55101;52.138;5.216;2022-07-05T08:48:43;102381.0;;;22.08;51.18
51201;BME280;55101;52.138;5.216;2022-07-05T08:50:33;102381.0;;;21.78;53.0
51201;BME280;55101;52.138;5.216;2022-07-05T08:54:09;102377.0;;;21.92;52.23
51201;BME280;55101;52.138;5.216;2022-07-05T08:55:58;102380.0;;;21.84;52.51
51201;BME280;55101;52.138;5.216;2022-07-05T08:57:44;102383.0;;;21.84;53.95
51201;BME280;55101;52.138;5.216;2022-07-05T08:59:32;102380.0;;;21.88;51.64
51201;BME280;55101;52.138;5.216;2022-07-05T09:01:19;102373.0;;;21.84;51.03
51201;BME280;55101;52.138;5.216;2022-07-05T09:03:07;102374.0;;;21.95;50.57
51201;BME280;55101;52.138;5.216;2022-07-05T09:06:46;102374.0;;;22.01;50.55
51201;BME280;55101;52.138;5.216;2022-07-05T09:08:35;102373.0;;;22.03;51.42
51201;BME280;55101;52.138;5.216;2022-07-05T09:10:24;102374.0;;;22.29;51.3
51201;BME280;55101;52.138;5.216;2022-07-05T09:12:13;102371.0;;;22.5;51.71
51201;BME280;55101;52.138;5.216;2022-07-05T09:14:02;102372.0;;;22.65;49.39
51201;BME280;55101;52.138;5.216;2022-07-05T09:15:51;102375.0;;;22.88;49.47
51201;BME280;55101;52.138;5.216;2022-07-05T09:19:30;102380.0;;;22.88;47.97
51201;BME280;55101;52.138;5.216;2022-07-05T09:21:18;102378.0;;;22.93;47.83
51201;BME280;55101;52.138;5.216;2022-07-05T09:23:06;102380.0;;;22.97;48.81
51201;BME280;55101;52.138;5.216;2022-07-05T09:24:52;102380.0;;;22.89;48.15
51201;BME280;55101;52.138;5.216;2022-07-05T09:26:39;102380.0;;;22.97;50.73
51201;BME280;55101;52.138;5.216;2022-07-05T09:28:28;102384.0;;;22.92;49.59
51201;BME280;55101;52.138;5.216;2022-07-05T09:30:23;102384.0;;;23.18;50.64
51201;BME280;55101;52.138;5.216;2022-07-05T09:34:11;102388.0;;;23.17;47.79
51201;BME280;55101;52.138;5.216;2022-07-05T09:35:58;102384.0;;;23.23;50.3
51201;BME280;55101;52.138;5.216;2022-07-05T09:37:44;102390.0;;;23.21;48.54
51201;BME280;55101;52.138;5.216;2022-07-05T09:39:38;102393.0;;;23.05;48.39
51201;BME280;55101;52.138;5.216;2022-07-05T09:41:25;102390.0;;;22.98;47.04
51201;BME280;55101;52.138;5.216;2022-07-05T09:43:13;102387.0;;;23.0;47.75
51201;BME280;55101;52.138;5.216;2022-07-05T09:45:00;102388.0;;;22.97;48.61
51201;BME280;55101;52.138;5.216;2022-07-05T09:48:34;102387.0;;;23.18;46.84
51201;BME280;55101;52.138;5.216;2022-07-05T09:50:36;102387.0;;;23.0;47.78
51201;BME280;55101;52.138;5.216;2022-07-05T09:52:27;102386.0;;;23.05;47.49
51201;BME280;55101;52.138;5.216;2022-07-05T09:54:14;102393.0;;;22.96;47.2
51201;BME280;55101;52.138;5.216;2022-07-05T09:56:01;102392.0;;;23.11;47.79
51201;BME280;55101;52.138;5.216;2022-07-05T09:57:50;102391.0;;;23.08;47.99
51201;BME280;55101;52.138;5.216;2022-07-05T09:59:37;102391.0;;;23.13;48.64
51201;BME280;55101;52.138;5.216;2022-07-05T10:03:11;102393.0;;;23.22;48.61
51201;BME280;55101;52.138;5.216;2022-07-05T10:05:08;102393.0;;;23.3;46.94
51201;BME280;55101;52.138;5.216;2022-07-05T10:06:56;102393.0;;;23.22;46.08
51201;BME280;55101;52.138;5.216;2022-07-05T10:08:43;102398.0;;;23.26;46.92
51201;BME280;55101;52.138;5.216;2022-07-05T10:10:31;102406.0;;;23.2;46.55
51201;BME280;55101;52.138;5.216;2022-07-05T10:12:18;102405.0;;;22.81;46.9
51201;BME280;55101;52.138;5.216;2022-07-05T10:16:00;102401.0;;;23.0;47.5
51201;BME280;55101;52.138;5.216;2022-07-05T10:17:52;102400.0;;;23.18;48.32
51201;BME280;55101;52.138;5.216;2022-07-05T10:19:50;102398.0;;;23.15;47.31
51201;BME280;55101;52.138;5.216;2022-07-05T10:21:39;102396.0;;;23.17;47.4
51201;BME280;55101;52.138;5.216;2022-07-05T10:23:26;102400.0;;;23.52;47.82
51201;BME280;55101;52.138;5.216;2022-07-05T10:25:14;102392.0;;;23.56;46.25
51201;BME280;55101;52.138;5.216;2022-07-05T10:27:05;102382.0;;;23.57;45.51
51201;BME280;55101;52.138;5.216;2022-07-05T10:28:53;102380.0;;;23.9;47.01
51201;BME280;55101;52.138;5.216;2022-07-05T10:32:28;102380.0;;;24.08;44.67
51201;BME280;55101;52.138;5.216;2022-07-05T10:34:15;102386.0;;;23.98;45.92
51201;BME280;55101;52.138;5.216;2022-07-05T10:36:04;102385.0;;;23.98;46.04
51201;BME280;55101;52.138;5.216;2022-07-05T10:37:51;102384.0;;;23.76;45.28
51201;BME280;55101;52.138;5.216;2022-07-05T10:39:39;102396.0;;;24.05;48.06
51201;BME280;55101;52.138;5.216;2022-07-05T10:41:27;102384.0;;;24.16;48.06
51201;BME280;55101;52.138;5.216;2022-07-05T10:45:03;102390.0;;;24.27;43.85
51201;BME280;55101;52.138;5.216;2022-07-05T10:47:12;102387.0;;;24.41;42.73
51201;BME280;55101;52.138;5.216;2022-07-05T10:49:09;102388.0;;;24.49;45.86
51201;BME280;55101;52.138;5.216;2022-07-05T10:50:57;102391.0;;;24.6;45.33
51201;BME280;55101;52.138;5.216;2022-07-05T10:53:01;102395.0;;;24.47;42.91
51201;BME280;55101;52.138;5.216;2022-07-05T10:55:17;102398.0;;;24.27;43.04
51201;BME280;55101;52.138;5.216;2022-07-05T10:57:20;102400.0;;;24.14;43.38
51201;BME280;55101;52.138;5.216;2022-07-05T10:59:11;102400.0;;;24.14;44.7
51201;BME280;55101;52.138;5.216;2022-07-05T11:01:33;102398.0;;;24.19;45.1
51201;BME280;55101;52.138;5.216;2022-07-05T11:03:38;102396.0;;;24.25;44.66
51201;BME280;55101;52.138;5.216;2022-07-05T11:05:26;102400.0;;;24.12;45.81
51201;BME280;55101;52.138;5.216;2022-07-05T11:07:13;102400.0;;;23.97;42.22
51201;BME280;55101;52.138;5.216;2022-07-05T11:09:16;102405.0;;;24.0;43.0
51201;BME280;55101;52.138;5.216;2022-07-05T11:11:11;102407.0;;;24.02;44.62
51201;BME280;55101;52.138;5.216;2022-07-05T11:12:58;102408.99999999999;;;23.98;43.61